Time;durP1;ratioP1;P1;durP2;ratioP2;P2;SDS_P1;SDS_P2;PMS_P1;PMS_P2;Temp;Humidity;BMP_temperature;BMP_pressure;BME280_temperature;BME280_humidity;BME280_pressure;Samples;Min_cycle;Max_cycle;Signal;HPM_P1;HPM_P2
2023/06/26 00:00:56;;;;;;;2.92;2.10;;;;;;;25.00;43.33;101247.19;16107559;19;129450;-59
2023/06/26 00:06:18;;;;;;;2.25;1.90;;;;;;;24.99;43.15;101253.03;16108651;19;130611;-59
2023/06/26 00:11:40;;;;;;;2.25;2.00;;;;;;;24.98;43.12;101246.63;16104165;19;130784;-58
2023/06/26 00:17:02;;;;;;;2.28;1.65;;;;;;;24.99;43.20;101247.44;16105643;19;129608;-59
2023/06/26 00:22:24;;;;;;;2.70;2.08;;;;;;;24.99;43.30;101255.84;16106172;19;131301;-59
2023/06/26 00:27:46;;;;;;;2.08;1.83;;;;;;;24.99;43.42;101258.66;16101804;19;129763;-58
2023/06/26 00:33:08;;;;;;;2.75;1.80;;;;;;;24.98;42.98;101271.81;16111741;19;130138;-58
2023/06/26 00:38:30;;;;;;;1.80;1.60;;;;;;;24.98;42.94;101268.19;16102787;19;131221;-57
2023/06/26 00:43:52;;;;;;;2.75;1.90;;;;;;;24.98;43.04;101273.78;16097971;19;129788;-58
2023/06/26 00:49:14;;;;;;;3.03;2.00;;;;;;;24.97;42.99;101266.50;16109088;19;134346;-59
2023/06/26 00:54:36;;;;;;;2.00;1.80;;;;;;;24.96;43.16;101262.03;16104342;19;130107;-59
2023/06/26 01:00:00;;;;;;;2.03;1.70;;;;;;;24.97;43.14;101260.91;16098040;19;131130;-59
2023/06/26 01:05:22;;;;;;;2.63;1.98;;;;;;;24.96;43.08;101267.63;16111411;19;129317;-59
2023/06/26 01:10:47;;;;;;;1.98;1.77;;;;;;;24.96;43.05;101276.03;16111850;19;130899;-59
2023/06/26 01:16:10;;;;;;;2.28;1.60;;;;;;;24.95;43.12;101282.75;16118242;19;131244;-59
2023/06/26 01:21:32;;;;;;;2.10;1.90;;;;;;;24.94;43.01;101278.25;16119243;19;130151;-59
2023/06/26 01:26:54;;;;;;;2.22;1.50;;;;;;;24.94;42.76;101289.47;16112642;19;131727;-58
2023/06/26 01:32:18;;;;;;;2.17;1.90;;;;;;;24.94;42.65;101297.84;16115919;19;129814;-59
2023/06/26 01:37:40;;;;;;;2.22;1.90;;;;;;;24.93;42.63;101298.97;16114431;19;130923;-58
2023/06/26 01:43:02;;;;;;;2.08;1.60;;;;;;;24.92;42.77;101294.50;16120522;19;129781;-59
2023/06/26 01:48:30;;;;;;;2.47;1.83;;;;;;;24.93;42.58;101301.78;16116882;19;129586;-59
2023/06/26 01:53:56;;;;;;;2.03;1.77;;;;;;;24.91;42.49;101307.66;16119435;19;130794;-59
2023/06/26 01:59:20;;;;;;;1.77;1.60;;;;;;;24.91;42.74;101310.47;16112156;19;129479;-59
2023/06/26 02:04:42;;;;;;;2.53;1.60;;;;;;;24.88;42.68;101314.63;16109034;19;131489;-59
2023/06/26 02:10:05;;;;;;;1.83;1.48;;;;;;;24.88;42.47;101303.44;16105004;19;130357;-59
2023/06/26 02:15:27;;;;;;;2.05;1.60;;;;;;;24.88;42.76;101302.59;16109972;19;131405;-59
2023/06/26 02:20:49;;;;;;;1.50;1.40;;;;;;;24.87;42.73;101306.50;16113329;19;130746;-59
2023/06/26 02:26:11;;;;;;;1.90;1.45;;;;;;;24.86;42.39;101310.41;16111960;19;130911;-59
2023/06/26 02:31:33;;;;;;;1.73;1.52;;;;;;;24.86;42.48;101316.00;16113555;19;131644;-59
2023/06/26 02:36:55;;;;;;;4.10;1.75;;;;;;;24.86;42.30;101324.41;16114786;19;129952;-59
2023/06/26 02:42:17;;;;;;;2.75;1.70;;;;;;;24.84;42.52;101333.09;16112245;19;129739;-58
2023/06/26 02:47:39;;;;;;;2.05;1.58;;;;;;;24.84;42.21;101330.28;16112491;19;130902;-58
2023/06/26 02:53:02;;;;;;;2.10;1.63;;;;;;;24.84;42.24;101352.69;16112619;19;129425;-59
2023/06/26 02:58:24;;;;;;;1.70;1.60;;;;;;;24.84;42.38;101340.63;16112901;19;131256;-58
2023/06/26 03:03:46;;;;;;;2.20;1.42;;;;;;;24.83;42.44;101345.41;16108194;19;131280;-58
2023/06/26 03:09:09;;;;;;;1.90;1.60;;;;;;;24.83;42.35;101358.53;16108965;19;131288;-58
2023/06/26 03:14:31;;;;;;;3.08;1.65;;;;;;;24.82;42.45;101345.66;16111207;19;130088;-58
2023/06/26 03:19:53;;;;;;;2.22;1.40;;;;;;;24.81;42.26;101350.44;16111488;19;129794;-58
2023/06/26 03:25:15;;;;;;;3.25;1.30;;;;;;;24.81;42.50;101364.41;16114326;19;130096;-57
2023/06/26 03:30:37;;;;;;;2.20;1.63;;;;;;;24.80;42.05;101371.13;16111255;19;130574;-59
2023/06/26 03:36:00;;;;;;;4.03;1.70;;;;;;;24.79;42.14;101366.66;16111345;19;129803;-58
2023/06/26 03:41:22;;;;;;;4.30;1.80;;;;;;;24.79;42.26;101372.25;16107582;19;129472;-58
2023/06/26 03:46:44;;;;;;;8.10;1.80;;;;;;;24.80;42.03;101385.13;16107775;19;131354;-59
2023/06/26 03:52:06;;;;;;;5.78;1.50;;;;;;;24.79;42.24;101389.03;16107408;19;129696;-58
2023/06/26 03:57:28;;;;;;;3.83;1.63;;;;;;;24.79;42.08;101399.41;16112839;19;130372;-58
2023/06/26 04:02:51;;;;;;;5.75;1.95;;;;;;;24.78;42.14;101409.75;16111884;19;130398;-59
2023/06/26 04:08:13;;;;;;;7.05;2.10;;;;;;;24.77;42.14;101413.66;16110262;19;129821;-58
2023/06/26 04:13:35;;;;;;;7.78;1.77;;;;;;;24.77;41.97;101418.44;16109747;19;131580;-59
2023/06/26 04:18:56;;;;;;;4.88;2.08;;;;;;;24.76;42.17;101423.16;16113172;19;130612;-59
2023/06/26 04:24:18;;;;;;;5.57;2.03;;;;;;;24.76;42.08;101423.16;16110888;19;129988;-58
2023/06/26 04:29:40;;;;;;;5.60;1.83;;;;;;;24.76;42.19;101445.53;16110692;19;130518;-59
2023/06/26 04:35:02;;;;;;;6.30;1.95;;;;;;;24.75;41.95;101438.28;16112451;19;130515;-59
2023/06/26 04:40:24;;;;;;;4.57;1.92;;;;;;;24.75;41.97;101441.06;16117338;19;132298;-59
2023/06/26 04:45:46;;;;;;;4.80;1.80;;;;;;;24.74;41.87;101444.97;16124953;19;131009;-59
2023/06/26 04:51:08;;;;;;;7.97;2.20;;;;;;;24.74;42.13;101458.97;16124730;19;130520;-58
2023/06/26 04:56:30;;;;;;;3.85;1.90;;;;;;;24.74;41.82;101458.97;16127424;19;129361;-58
2023/06/26 05:01:53;;;;;;;3.97;1.83;;;;;;;24.74;41.69;101470.16;16123263;19;131289;-59
2023/06/26 05:07:15;;;;;;;6.93;2.13;;;;;;;24.74;41.78;101475.75;16122487;19;132108;-59
2023/06/26 05:12:40;;;;;;;5.60;1.90;;;;;;;24.72;41.92;101472.41;16125065;19;130209;-59
2023/06/26 05:18:02;;;;;;;4.80;1.88;;;;;;;24.73;41.65;101485.28;16124183;19;130373;-58
2023/06/26 05:23:25;;;;;;;4.53;1.80;;;;;;;24.74;41.65;101486.94;16120451;19;130104;-59
2023/06/26 05:28:48;;;;;;;4.60;1.35;;;;;;;24.73;41.55;101490.88;16122694;19;129756;-59
2023/06/26 05:34:10;;;;;;;8.88;1.83;;;;;;;24.71;41.76;101482.75;16124030;19;129413;-58
2023/06/26 05:39:32;;;;;;;4.80;1.90;;;;;;;24.69;41.78;101500.94;16120219;19;129618;-57
2023/06/26 05:44:54;;;;;;;9.05;2.40;;;;;;;24.63;41.34;101511.25;16119891;19;129867;-58
2023/06/26 05:50:18;;;;;;;7.15;2.55;;;;;;;24.62;41.20;101522.72;16118713;19;130345;-58
2023/06/26 05:55:42;;;;;;;7.38;1.88;;;;;;;24.60;41.22;101520.19;16118079;19;129338;-57
2023/06/26 06:01:04;;;;;;;6.47;1.97;;;;;;;24.61;41.10;101535.03;16121350;19;129252;-57
2023/06/26 06:06:26;;;;;;;7.95;2.22;;;;;;;24.62;41.22;101542.28;16121815;19;129324;-57
2023/06/26 06:11:48;;;;;;;7.55;2.22;;;;;;;24.64;41.12;101542.88;16119359;19;130742;-59
2023/06/26 06:17:10;;;;;;;6.68;2.00;;;;;;;24.65;40.98;101530.56;16124047;19;129923;-55
2023/06/26 06:22:31;;;;;;;6.90;2.00;;;;;;;24.66;40.98;101543.44;16146844;19;130135;-57
2023/06/26 06:27:53;;;;;;;8.70;2.15;;;;;;;24.65;40.96;101545.41;16140084;19;129310;-57
2023/06/26 06:33:15;;;;;;;7.28;1.85;;;;;;;24.69;40.77;101559.69;16140367;19;129734;-57
2023/06/26 06:38:37;;;;;;;8.80;2.33;;;;;;;24.69;40.66;101563.31;16138032;19;128895;-58
2023/06/26 06:43:59;;;;;;;7.25;2.25;;;;;;;24.71;40.84;101571.47;16135013;19;129577;-58
2023/06/26 06:49:21;;;;;;;5.93;1.90;;;;;;;24.71;40.76;101588.25;16139052;19;130384;-57
2023/06/26 06:55:05;;;;;;;7.28;2.22;;;;;;;24.74;40.91;101604.47;16129031;19;129169;-58
2023/06/26 07:00:27;;;;;;;6.35;2.10;;;;;;;24.72;40.81;101613.13;16116381;19;129916;-58
2023/06/26 07:05:48;;;;;;;5.90;1.80;;;;;;;24.73;40.96;101605.59;16115845;19;131687;-58
2023/06/26 07:11:10;;;;;;;6.57;2.10;;;;;;;24.74;40.62;101615.66;16117431;19;130340;-57
2023/06/26 07:16:32;;;;;;;5.80;1.83;;;;;;;24.76;40.68;101618.19;16113564;19;129867;-58
2023/06/26 07:21:55;;;;;;;5.97;1.63;;;;;;;24.76;40.96;101619.03;16113443;19;129290;-59
2023/06/26 07:27:20;;;;;;;5.28;1.30;;;;;;;24.76;40.69;101626.59;16114909;19;129826;-60
2023/06/26 07:32:44;;;;;;;7.40;1.60;;;;;;;24.75;40.46;101633.31;16119973;19;130478;-60
2023/06/26 07:38:06;;;;;;;8.27;1.90;;;;;;;24.78;40.58;101647.59;16115545;19;129550;-59
2023/06/26 07:43:28;;;;;;;8.52;1.70;;;;;;;24.81;40.08;101646.19;16114010;19;130083;-60
2023/06/26 07:48:50;;;;;;;5.57;1.30;;;;;;;24.81;40.70;101643.41;16109690;19;129497;-59
2023/06/26 07:54:12;;;;;;;4.95;1.45;;;;;;;24.80;40.28;101653.75;16120766;19;129973;-59
2023/06/26 07:59:35;;;;;;;5.80;1.55;;;;;;;24.81;39.93;101662.97;16118162;19;130661;-59
2023/06/26 08:04:57;;;;;;;5.95;1.20;;;;;;;24.81;39.93;101662.97;16111922;19;129840;-59
2023/06/26 08:10:19;;;;;;;6.28;1.25;;;;;;;24.81;39.71;101661.03;16113587;19;131257;-59
2023/06/26 08:15:41;;;;;;;6.55;1.90;;;;;;;24.83;39.46;101658.81;16109430;19;129400;-59
2023/06/26 08:21:03;;;;;;;2.08;0.88;;;;;;;24.86;39.35;101661.06;16114145;19;129470;-59
2023/06/26 08:26:25;;;;;;;4.43;1.08;;;;;;;24.88;39.36;101669.19;16113292;19;129503;-58
2023/06/26 08:31:47;;;;;;;5.13;1.20;;;;;;;24.88;38.91;101666.41;16112759;19;129908;-58
2023/06/26 08:37:09;;;;;;;6.03;1.70;;;;;;;24.88;39.01;101661.66;16112152;19;130483;-57
2023/06/26 08:42:31;;;;;;;4.80;1.52;;;;;;;24.90;39.46;101680.13;16108006;19;130422;-59
2023/06/26 08:47:55;;;;;;;3.28;0.80;;;;;;;24.88;39.07;101680.41;16104956;19;129602;-59
2023/06/26 08:53:46;;;;;;;4.97;0.98;;;;;;;24.86;39.09;101696.59;16104138;19;130435;-60
2023/06/26 08:59:14;;;;;;;3.78;1.10;;;;;;;24.84;39.39;101694.09;16089765;19;129974;-59
2023/06/26 09:04:36;;;;;;;9.27;1.13;;;;;;;24.83;39.13;101698.00;16103747;19;131088;-58
2023/06/26 09:09:58;;;;;;;3.65;1.00;;;;;;;24.83;39.18;101692.41;16101159;19;129906;-58
2023/06/26 09:15:20;;;;;;;3.95;0.90;;;;;;;24.84;39.17;101699.69;16105884;19;130070;-58
2023/06/26 09:20:43;;;;;;;5.18;1.25;;;;;;;24.84;39.16;101705.28;16106552;19;130001;-58
2023/06/26 09:26:05;;;;;;;3.30;0.85;;;;;;;24.85;39.28;101712.56;16108587;19;129938;-59
2023/06/26 09:31:28;;;;;;;5.60;0.90;;;;;;;24.84;39.13;101727.69;16124226;19;129777;-59
2023/06/26 09:37:03;;;;;;;4.17;1.00;;;;;;;24.85;39.31;101740.56;16128385;19;130473;-60
2023/06/26 09:42:25;;;;;;;5.82;1.00;;;;;;;24.87;39.20;101735.50;16127596;19;129697;-59
2023/06/26 09:47:47;;;;;;;2.72;0.63;;;;;;;24.92;38.50;101734.75;16125481;19;129966;-60
2023/06/26 09:53:13;;;;;;;5.80;0.93;;;;;;;24.96;38.42;101726.66;16124081;19;132933;-59
2023/06/26 09:58:37;;;;;;;3.35;0.90;;;;;;;24.99;38.36;101737.28;16125593;19;129681;-60
2023/06/26 10:04:00;;;;;;;2.00;0.60;;;;;;;25.03;38.40;101746.84;16122825;19;130426;-59
2023/06/26 10:09:30;;;;;;;4.53;0.90;;;;;;;25.02;38.36;101740.41;16125539;19;130299;-60
2023/06/26 10:14:53;;;;;;;2.13;0.73;;;;;;;25.03;37.79;101750.50;16120692;19;130705;-59
2023/06/26 10:20:16;;;;;;;2.92;1.00;;;;;;;25.05;37.73;101753.03;16120768;19;129803;-59
2023/06/26 10:25:42;;;;;;;1.88;0.70;;;;;;;25.08;37.82;101755.28;16119151;19;131015;-59
2023/06/26 10:31:07;;;;;;;3.75;0.85;;;;;;;25.07;37.62;101752.75;16113757;19;129661;-59
2023/06/26 10:36:31;;;;;;;3.42;0.80;;;;;;;25.06;37.53;101763.09;16115732;19;135021;-60
2023/06/26 10:42:09;;;;;;;4.43;1.33;;;;;;;25.08;36.93;101757.22;16121384;19;129744;-59
2023/06/26 10:47:32;;;;;;;6.03;1.13;;;;;;;25.08;37.07;101760.88;16120104;19;131414;-59
2023/06/26 10:53:08;;;;;;;7.40;1.20;;;;;;;25.10;36.57;101757.81;16124446;19;129452;-60
2023/06/26 10:58:41;;;;;;;4.35;0.80;;;;;;;25.08;36.85;101776.81;16123192;19;129600;-54
2023/06/26 11:04:07;;;;;;;5.72;0.90;;;;;;;25.16;36.42;101779.13;16122834;19;129315;-57
2023/06/26 11:09:29;;;;;;;3.20;1.10;;;;;;;25.19;36.65;101770.16;16126680;19;133019;-56
2023/06/26 11:14:51;;;;;;;7.43;1.30;;;;;;;25.22;36.62;101782.81;16124926;19;130005;-66
2023/06/26 11:20:14;;;;;;;3.67;0.70;;;;;;;25.23;36.33;101785.31;16133719;19;129720;-60
2023/06/26 11:25:37;;;;;;;6.00;1.00;;;;;;;25.25;36.31;101782.25;16140451;19;129742;-63
2023/06/26 11:30:59;;;;;;;4.97;0.70;;;;;;;25.26;36.62;101818.41;16133984;19;131324;-60
2023/06/26 11:36:24;;;;;;;5.25;0.93;;;;;;;25.28;36.29;101809.72;16140752;19;129798;-61
2023/06/26 11:41:46;;;;;;;2.15;0.70;;;;;;;25.25;36.50;101827.91;16135748;19;129829;-62
2023/06/26 11:47:16;;;;;;;2.42;0.70;;;;;;;25.29;36.67;101831.84;16133671;19;129890;-60
2023/06/26 11:52:41;;;;;;;1.85;0.80;;;;;;;25.30;36.61;101829.91;16118277;19;130139;-59
2023/06/26 11:58:03;;;;;;;2.83;0.68;;;;;;;25.32;36.63;101844.47;16117337;19;129508;-59
2023/06/26 12:03:25;;;;;;;0.95;0.65;;;;;;;25.31;36.47;101835.22;16119219;19;131218;-63
2023/06/26 12:08:47;;;;;;;2.25;0.85;;;;;;;25.33;36.58;101820.97;16120218;19;130979;-56
2023/06/26 12:14:11;;;;;;;2.70;0.77;;;;;;;25.32;36.72;101836.06;16098409;19;130694;-58
2023/06/26 12:19:36;;;;;;;3.13;0.70;;;;;;;25.30;36.58;101847.53;16103989;19;130264;-58
2023/06/26 12:24:58;;;;;;;6.63;0.53;;;;;;;25.28;36.59;101851.72;16126844;19;129591;-60
2023/06/26 12:30:20;;;;;;;3.10;0.73;;;;;;;25.25;36.22;101857.84;16118784;19;131745;-60
2023/06/26 12:35:43;;;;;;;4.53;0.88;;;;;;;25.23;36.56;101858.13;16123375;19;130938;-59
2023/06/26 12:41:16;;;;;;;3.00;0.80;;;;;;;25.26;36.26;101854.81;16120847;19;130089;-59
2023/06/26 12:46:39;;;;;;;2.38;0.70;;;;;;;25.25;36.46;101843.84;16108608;19;130536;-58
2023/06/26 12:52:02;;;;;;;2.97;0.70;;;;;;;25.24;36.37;101859.81;16101111;19;129710;-60
2023/06/26 12:57:25;;;;;;;1.38;0.60;;;;;;;25.23;36.38;101857.31;16108361;19;129535;-63
2023/06/26 13:02:47;;;;;;;1.40;0.47;;;;;;;25.24;36.03;101858.97;16115472;19;129716;-57
2023/06/26 13:08:09;;;;;;;1.88;0.60;;;;;;;25.23;36.28;101851.72;16115777;19;133248;-60
2023/06/26 13:13:31;;;;;;;1.48;0.70;;;;;;;25.25;36.37;101855.06;16117333;19;130214;-54
2023/06/26 13:18:53;;;;;;;3.50;0.80;;;;;;;25.26;36.76;101846.41;16120138;19;130727;-60
2023/06/26 13:24:15;;;;;;;3.42;0.80;;;;;;;25.27;36.52;101852.84;16121934;19;129494;-59
2023/06/26 13:29:37;;;;;;;2.55;0.60;;;;;;;25.28;36.07;101862.91;16123842;19;129726;-55
2023/06/26 13:34:59;;;;;;;2.17;0.60;;;;;;;25.27;36.27;101858.44;16120141;19;130561;-55
2023/06/26 13:40:21;;;;;;;3.33;0.75;;;;;;;25.27;36.00;101852.84;16121395;19;130179;-50
2023/06/26 13:45:44;;;;;;;3.83;1.05;;;;;;;25.26;35.64;101848.34;16118406;19;131364;-60
2023/06/26 13:51:06;;;;;;;4.15;0.70;;;;;;;25.25;35.67;101844.72;16121266;19;129653;-57
2023/06/26 13:56:30;;;;;;;4.20;0.80;;;;;;;25.27;35.80;101855.63;16120422;19;129641;-61
2023/06/26 14:01:52;;;;;;;4.67;0.87;;;;;;;25.28;35.63;101869.38;16119277;19;131095;-61
2023/06/26 14:07:14;;;;;;;1.20;0.50;;;;;;;25.29;35.77;101859.84;16119713;19;134558;-57
2023/06/26 14:12:36;;;;;;;2.33;0.70;;;;;;;25.30;35.68;101861.53;16117648;19;130227;-59
2023/06/26 14:17:59;;;;;;;3.20;0.73;;;;;;;25.28;35.54;101860.97;16118541;19;129501;-55
2023/06/26 14:23:21;;;;;;;2.63;0.55;;;;;;;25.28;35.56;101863.78;16115684;19;130496;-61
2023/06/26 14:28:43;;;;;;;3.72;0.70;;;;;;;25.31;35.41;101862.41;16118997;19;129863;-58
2023/06/26 14:34:04;;;;;;;2.83;0.80;;;;;;;25.31;35.91;101873.59;16117907;19;130870;-50
2023/06/26 14:39:27;;;;;;;2.45;0.88;;;;;;;25.31;35.75;101876.41;16116286;19;130820;-55
2023/06/26 14:44:50;;;;;;;1.50;0.45;;;;;;;25.32;35.82;101883.69;16119456;19;131123;-59
2023/06/26 14:50:12;;;;;;;4.03;1.00;;;;;;;25.30;35.21;101880.31;16116904;19;130457;-58
2023/06/26 14:55:35;;;;;;;3.60;0.63;;;;;;;25.30;35.09;101872.72;16113447;19;130852;-64
2023/06/26 15:00:57;;;;;;;3.25;0.82;;;;;;;25.30;35.43;101880.31;16115648;19;130202;-65
2023/06/26 15:06:19;;;;;;;2.97;0.80;;;;;;;25.30;35.28;101871.91;16113433;19;131289;-51
2023/06/26 15:11:41;;;;;;;3.53;0.50;;;;;;;25.30;35.15;101866.31;16112239;19;129687;-60
2023/06/26 15:17:03;;;;;;;6.28;0.68;;;;;;;25.29;34.88;101873.00;16113505;19;130752;-54
2023/06/26 15:22:26;;;;;;;4.18;0.98;;;;;;;25.28;34.82;101886.19;16111289;19;129885;-53
2023/06/26 15:27:49;;;;;;;8.10;0.93;;;;;;;25.27;34.49;101887.31;16106415;19;130580;-51
2023/06/26 15:33:11;;;;;;;3.63;0.80;;;;;;;25.27;34.21;101880.84;16110244;19;129842;-49
2023/06/26 15:38:34;;;;;;;5.47;1.38;;;;;;;25.27;34.29;101886.44;16109033;19;129915;-57
2023/06/26 15:43:56;;;;;;;3.50;0.98;;;;;;;25.27;34.27;101878.91;16107165;19;130608;-56
2023/06/26 15:49:17;;;;;;;4.35;1.10;;;;;;;25.25;33.94;101878.31;16107828;19;129990;-52
2023/06/26 15:54:39;;;;;;;2.05;0.90;;;;;;;25.25;33.96;101877.47;16126705;19;130969;-51
2023/06/26 16:00:03;;;;;;;3.30;0.98;;;;;;;25.23;33.56;101890.91;16100504;19;129537;-48
2023/06/26 16:05:25;;;;;;;2.53;1.00;;;;;;;25.21;33.79;101881.94;16101301;19;130964;-48
2023/06/26 16:10:47;;;;;;;2.90;0.70;;;;;;;25.19;33.86;101885.84;16137795;19;129888;-56
2023/06/26 16:16:10;;;;;;;3.95;0.93;;;;;;;25.17;33.61;101885.25;16109680;19;129415;-51
2023/06/26 16:21:31;;;;;;;5.47;1.05;;;;;;;25.16;33.94;101891.97;16110390;19;130345;-53
2023/06/26 16:26:53;;;;;;;5.38;1.00;;;;;;;25.17;33.62;101898.44;16109099;19;129511;-52
2023/06/26 16:32:15;;;;;;;4.47;1.05;;;;;;;25.16;33.63;101891.13;16110066;19;131314;-54
2023/06/26 16:37:37;;;;;;;4.38;1.10;;;;;;;25.15;33.88;101889.44;16119242;19;132020;-51
2023/06/26 16:42:59;;;;;;;5.03;0.80;;;;;;;25.14;33.65;101897.00;16123630;19;131532;-54
2023/06/26 16:48:21;;;;;;;6.88;1.20;;;;;;;25.14;33.38;101887.75;16126664;19;129845;-54
2023/06/26 16:53:44;;;;;;;6.55;1.00;;;;;;;25.13;33.53;101903.69;16121927;19;130408;-52
2023/06/26 16:59:05;;;;;;;4.15;0.95;;;;;;;25.13;33.49;101895.28;16120415;19;130278;-55
2023/06/26 17:04:29;;;;;;;5.10;0.93;;;;;;;25.13;33.66;101894.47;16121593;19;130837;-57
2023/06/26 17:09:51;;;;;;;2.75;0.95;;;;;;;25.15;33.30;101889.44;16122990;19;130376;-55
2023/06/26 17:15:13;;;;;;;6.28;1.13;;;;;;;25.17;33.28;101892.81;16123447;19;129864;-54
2023/06/26 17:20:35;;;;;;;2.65;0.88;;;;;;;25.18;33.24;101891.69;16125000;19;130687;-56
2023/06/26 17:25:58;;;;;;;7.57;1.00;;;;;;;25.17;33.51;101893.66;16119383;19;129672;-53
2023/06/26 17:31:24;;;;;;;13.90;1.27;;;;;;;25.23;33.62;101902.13;16121367;19;129663;-52
2023/06/26 17:36:46;;;;;;;8.15;1.15;;;;;;;25.25;33.97;101895.13;16119631;19;129795;-52
2023/06/26 17:42:08;;;;;;;10.10;1.13;;;;;;;25.29;34.05;101901.03;16119426;19;129672;-49
2023/06/26 17:47:30;;;;;;;5.70;1.23;;;;;;;25.31;34.30;101899.63;16118571;19;130612;-53
2023/06/26 17:52:52;;;;;;;3.50;0.80;;;;;;;25.33;34.29;101905.81;16123286;19;131029;-56
2023/06/26 17:58:14;;;;;;;6.72;0.65;;;;;;;25.35;34.28;101905.56;16119331;19;135526;-53
2023/06/26 18:03:36;;;;;;;4.03;0.85;;;;;;;25.35;34.38;101916.78;16115878;19;129832;-56
2023/06/26 18:08:58;;;;;;;2.70;0.63;;;;;;;25.35;34.50;101919.56;16125421;19;129516;-55
2023/06/26 18:14:20;;;;;;;4.95;0.95;;;;;;;25.35;34.72;101919.56;16124214;19;130317;-53
2023/06/26 18:19:43;;;;;;;2.63;0.80;;;;;;;25.35;34.95;101933.56;16118873;19;130863;-55
2023/06/26 18:25:06;;;;;;;5.68;1.10;;;;;;;25.34;34.92;101940.28;16116212;19;131692;-49
2023/06/26 18:30:28;;;;;;;9.90;0.90;;;;;;;25.33;35.19;101947.00;16115049;19;130043;-56
2023/06/26 18:35:50;;;;;;;8.95;0.77;;;;;;;25.32;35.29;101945.31;16117888;19;129809;-54
2023/06/26 18:41:13;;;;;;;4.90;0.80;;;;;;;25.31;35.38;101950.03;16117014;19;129657;-57
2023/06/26 18:46:35;;;;;;;3.90;0.77;;;;;;;25.30;35.37;101947.53;16115063;19;130016;-55
2023/06/26 18:51:57;;;;;;;6.63;0.75;;;;;;;25.29;35.38;101946.66;16109321;19;129983;-52
2023/06/26 18:57:19;;;;;;;7.97;1.17;;;;;;;25.28;35.54;101946.94;16112644;19;130689;-56
2023/06/26 19:02:42;;;;;;;10.95;1.02;;;;;;;25.27;35.68;101945.25;16115123;19;129547;-56
2023/06/26 19:08:05;;;;;;;12.20;1.20;;;;;;;25.27;35.58;101953.66;16121645;19;129525;-53
2023/06/26 19:13:27;;;;;;;14.30;0.82;;;;;;;25.26;35.88;101951.97;16119260;19;130847;-54
2023/06/26 19:18:51;;;;;;;8.02;0.70;;;;;;;25.26;36.04;101957.56;16117053;19;130067;-55
2023/06/26 19:24:13;;;;;;;7.85;1.00;;;;;;;25.24;36.24;101955.03;16118856;19;129744;-55
2023/06/26 19:29:36;;;;;;;8.02;0.73;;;;;;;25.23;36.31;101958.94;16113907;19;129156;-55
2023/06/26 19:34:58;;;;;;;6.50;0.82;;;;;;;25.23;36.23;101963.72;16115075;19;131856;-54
2023/06/26 19:40:20;;;;;;;6.30;0.60;;;;;;;25.22;36.09;101962.03;16112147;19;129760;-56
2023/06/26 19:45:43;;;;;;;6.03;0.77;;;;;;;25.20;36.26;101962.28;16110930;19;130559;-55
2023/06/26 19:51:05;;;;;;;7.22;0.57;;;;;;;25.19;36.20;101969.84;16112514;19;130362;-53
2023/06/26 19:56:27;;;;;;;5.57;0.70;;;;;;;25.17;36.34;101972.06;16107772;19;130786;-56
2023/06/26 20:01:49;;;;;;;6.57;0.93;;;;;;;25.16;36.34;101973.16;16113386;19;131057;-50
2023/06/26 20:07:11;;;;;;;2.08;0.57;;;;;;;25.16;36.34;101981.56;16113509;19;129727;-52
2023/06/26 20:12:33;;;;;;;10.43;0.82;;;;;;;25.14;36.57;101992.19;16108393;19;130466;-51
2023/06/26 20:17:55;;;;;;;15.85;1.08;;;;;;;25.10;36.57;101993.84;16105931;19;129838;-53
2023/06/26 20:23:17;;;;;;;5.72;0.75;;;;;;;25.08;36.71;101995.19;16104063;19;130626;-55
2023/06/26 20:28:40;;;;;;;4.18;0.80;;;;;;;25.05;36.72;102001.34;16106996;19;130748;-56
2023/06/26 20:34:02;;;;;;;3.47;0.70;;;;;;;25.01;36.77;102001.00;16107549;19;129584;-57
2023/06/26 20:39:27;;;;;;;2.50;0.70;;;;;;;24.99;36.76;102003.22;16108410;19;131123;-55
2023/06/26 20:44:50;;;;;;;2.42;0.40;;;;;;;24.98;36.86;102015.56;16102568;19;132139;-57
2023/06/26 20:50:13;;;;;;;3.30;0.70;;;;;;;24.95;36.70;102013.28;16111675;19;129576;-55
2023/06/26 20:55:35;;;;;;;2.22;0.80;;;;;;;24.94;36.81;102009.63;16105922;19;130420;-55
2023/06/26 21:00:57;;;;;;;2.45;0.68;;;;;;;24.93;37.11;102009.91;16103199;19;130158;-53
2023/06/26 21:06:19;;;;;;;1.67;0.35;;;;;;;24.91;36.94;102020.50;16106198;19;130190;-56
2023/06/26 21:11:41;;;;;;;2.83;0.40;;;;;;;24.88;36.98;102017.13;16099114;19;130893;-50
2023/06/26 21:17:03;;;;;;;2.25;0.40;;;;;;;24.87;37.11;102023.78;16101026;19;129566;-56
2023/06/26 21:22:25;;;;;;;0.57;0.40;;;;;;;24.85;36.95;102014.84;16112858;19;130480;-54
2023/06/26 21:27:47;;;;;;;1.42;0.47;;;;;;;24.84;37.25;102018.75;16120382;19;131142;-57
2023/06/26 21:33:09;;;;;;;1.27;0.35;;;;;;;24.84;37.28;102017.88;16118699;19;129599;-56
2023/06/26 21:38:31;;;;;;;1.50;0.35;;;;;;;24.81;37.19;102013.66;16116417;19;131195;-54
2023/06/26 21:43:53;;;;;;;1.05;0.20;;;;;;;24.81;37.38;102016.47;16111470;19;130750;-55
2023/06/26 21:49:15;;;;;;;1.13;0.25;;;;;;;24.81;37.21;102021.19;16117491;19;130648;-55
2023/06/26 21:54:37;;;;;;;0.68;0.25;;;;;;;24.78;37.23;102014.19;16118684;19;129712;-55
2023/06/26 21:59:59;;;;;;;0.75;0.25;;;;;;;24.78;37.30;102019.78;16114001;19;130842;-56
2023/06/26 22:05:21;;;;;;;1.33;0.25;;;;;;;24.77;37.41;102017.25;16115445;19;129756;-54
2023/06/26 22:10:43;;;;;;;1.98;0.20;;;;;;;24.75;37.36;102016.66;16113990;19;129582;-54
2023/06/26 22:16:06;;;;;;;0.70;0.30;;;;;;;24.74;37.36;102015.81;16117807;19;129628;-55
2023/06/26 22:21:27;;;;;;;0.40;0.38;;;;;;;24.72;37.44;102004.88;16114117;19;131153;-52
2023/06/26 22:26:53;;;;;;;0.77;0.20;;;;;;;24.72;37.53;102016.06;16117879;19;129874;-54
2023/06/26 22:32:15;;;;;;;1.35;0.30;;;;;;;24.71;37.74;102002.34;16113158;19;129963;-54
2023/06/26 22:37:37;;;;;;;0.80;0.40;;;;;;;24.69;37.84;101999.81;16112386;19;130978;-57
2023/06/26 22:42:59;;;;;;;0.45;0.30;;;;;;;24.69;37.65;102008.19;16116659;19;131292;-55
2023/06/26 22:48:21;;;;;;;0.80;0.20;;;;;;;24.68;37.59;102000.91;16112345;19;130462;-55
2023/06/26 22:53:43;;;;;;;0.68;0.20;;;;;;;24.67;37.69;101995.59;16110983;19;130136;-53
2023/06/26 22:59:05;;;;;;;0.38;0.28;;;;;;;24.66;37.45;101996.69;16114289;19;130514;-56
2023/06/26 23:04:27;;;;;;;0.63;0.10;;;;;;;24.65;37.94;102000.59;16115385;19;130108;-56
2023/06/26 23:09:49;;;;;;;2.65;0.30;;;;;;;24.64;37.79;102005.34;16112534;19;134023;-53
2023/06/26 23:15:11;;;;;;;0.82;0.30;;;;;;;24.63;37.78;102003.66;16110439;19;130396;-55
2023/06/26 23:20:33;;;;;;;0.73;0.30;;;;;;;24.63;37.97;102006.47;16112211;19;130395;-56
2023/06/26 23:25:57;;;;;;;0.60;0.20;;;;;;;24.62;37.92;102003.91;16111780;19;129470;-54
2023/06/26 23:31:20;;;;;;;0.55;0.20;;;;;;;24.61;37.85;101996.66;16112878;19;130730;-56
2023/06/26 23:36:42;;;;;;;0.40;0.20;;;;;;;24.60;37.95;101997.75;16112906;19;130399;-56
2023/06/26 23:42:06;;;;;;;0.60;0.20;;;;;;;24.58;37.81;101992.41;16111976;19;130047;-55
2023/06/26 23:47:27;;;;;;;0.40;0.20;;;;;;;24.56;37.72;101995.47;16110292;19;129948;-54
2023/06/26 23:52:50;;;;;;;1.45;0.30;;;;;;;24.56;37.79;101989.88;16109971;19;131300;-56
2023/06/26 23:58:12;;;;;;;0.73;0.13;;;;;;;24.55;37.83;101990.97;16111390;19;129892;-57
